Time;durP1;ratioP1;P1;durP2;ratioP2;P2;SDS_P1;SDS_P2;PMS_P1;PMS_P2;Temp;Humidity;BMP_temperature;BMP_pressure;BME280_temperature;BME280_humidity;BME280_pressure;Samples;Min_cycle;Max_cycle;Signal;HPM_P1;HPM_P2
2022/10/29 00:01:53;;;;;;;13.63;5.03;;;15.70;99.90;;;;;;5056271;28;20817;-74
2022/10/29 00:04:19;;;;;;;15.70;5.00;;;15.80;99.90;;;;;;5055926;28;20205;-74
2022/10/29 00:06:47;;;;;;;11.30;3.83;;;15.70;99.90;;;;;;5056316;28;20222;-75
2022/10/29 00:09:12;;;;;;;12.57;4.73;;;15.80;99.90;;;;;;5055972;28;20705;-74
2022/10/29 00:11:38;;;;;;;13.90;4.93;;;15.80;99.90;;;;;;5054568;28;20429;-75
2022/10/29 00:14:04;;;;;;;8.90;3.63;;;15.80;99.90;;;;;;5055748;28;20171;-76
2022/10/29 00:16:36;;;;;;;15.37;6.57;;;15.70;99.90;;;;;;5071122;28;20198;-74
2022/10/29 00:19:03;;;;;;;13.30;4.77;;;15.70;99.90;;;;;;5055219;28;20174;-76
2022/10/29 00:21:29;;;;;;;17.23;4.70;;;15.70;99.90;;;;;;5056256;28;20436;-75
2022/10/29 00:23:56;;;;;;;14.47;4.20;;;15.60;99.90;;;;;;5055738;28;21263;-76
2022/10/29 00:26:23;;;;;;;6.57;4.00;;;15.60;99.90;;;;;;5055391;28;20546;-74
2022/10/29 00:28:54;;;;;;;9.93;4.30;;;15.60;99.90;;;;;;5055378;28;20829;-74
2022/10/29 00:31:23;;;;;;;12.63;4.70;;;15.50;99.90;;;;;;5056171;28;20428;-74
2022/10/29 00:33:49;;;;;;;15.87;4.70;;;15.50;99.90;;;;;;5055546;28;20927;-75
2022/10/29 00:36:18;;;;;;;16.93;5.53;;;15.50;99.90;;;;;;5054338;28;20437;-77
2022/10/29 00:38:44;;;;;;;15.30;4.87;;;15.50;99.90;;;;;;5053860;28;20516;-74
2022/10/29 00:41:13;;;;;;;17.37;4.07;;;15.60;99.90;;;;;;5055825;28;20420;-74
2022/10/29 00:43:45;;;;;;;9.33;4.23;;;15.60;99.90;;;;;;5054277;28;20528;-75
2022/10/29 00:46:14;;;;;;;12.10;4.50;;;15.50;99.90;;;;;;5055610;28;20456;-74
2022/10/29 00:48:46;;;;;;;12.10;4.20;;;15.60;99.90;;;;;;5054847;28;20402;-77
2022/10/29 00:51:14;;;;;;;11.10;5.37;;;15.60;99.90;;;;;;5054834;28;20539;-73
2022/10/29 00:53:55;;;;;;;5.47;4.03;;;15.50;99.90;;;;;;5055392;28;20758;-74
2022/10/29 00:56:23;;;;;;;8.37;4.43;;;15.50;99.90;;;;;;5038301;28;20982;-77
2022/10/29 00:58:49;;;;;;;11.13;3.63;;;15.40;99.90;;;;;;5054430;28;20797;-75
2022/10/29 01:01:15;;;;;;;16.20;4.23;;;15.30;99.90;;;;;;5055918;28;20492;-74
2022/10/29 01:03:40;;;;;;;12.93;3.73;;;15.20;99.90;;;;;;5053533;28;20190;-74
2022/10/29 01:06:07;;;;;;;7.57;3.23;;;15.20;99.90;;;;;;5053368;28;20977;-75
2022/10/29 01:08:33;;;;;;;14.90;3.40;;;15.00;99.90;;;;;;5054679;28;20171;-76
2022/10/29 01:11:43;;;;;;;8.93;3.90;;;15.00;99.90;;;;;;5055446;28;20432;-74
2022/10/29 01:14:40;;;;;;;13.90;3.37;;;14.90;99.90;;;;;;5053559;28;20401;-75
2022/10/29 01:17:05;;;;;;;8.40;4.60;;;14.90;99.90;;;;;;5054922;28;20443;-75
2022/10/29 01:20:12;;;;;;;16.70;4.67;;;14.70;99.90;;;;;;5054009;28;20490;-74
2022/10/29 01:23:34;;;;;;;13.63;4.67;;;14.70;99.90;;;;;;5055646;28;20633;-75
2022/10/29 01:26:42;;;;;;;19.73;3.70;;;14.70;99.90;;;;;;5031249;28;20477;-75
2022/10/29 01:29:34;;;;;;;16.77;4.00;;;14.70;99.90;;;;;;5038302;28;20948;-74
2022/10/29 01:32:34;;;;;;;14.03;3.47;;;14.40;99.90;;;;;;5054362;28;20397;-75
2022/10/29 01:35:06;;;;;;;11.20;4.27;;;14.30;99.90;;;;;;5041683;28;20438;-75
2022/10/29 01:37:57;;;;;;;4.63;3.37;;;14.30;99.90;;;;;;5053413;28;20405;-73
2022/10/29 01:40:31;;;;;;;9.90;3.70;;;14.30;99.90;;;;;;5054859;28;20428;-73
2022/10/29 01:43:14;;;;;;;10.93;3.30;;;14.30;99.90;;;;;;5053760;28;20412;-74
2022/10/29 01:45:49;;;;;;;14.10;3.77;;;14.20;99.90;;;;;;5053567;28;20460;-75
2022/10/29 01:48:21;;;;;;;16.70;5.23;;;14.20;99.90;;;;;;5054585;28;20405;-74
2022/10/29 01:50:52;;;;;;;16.60;4.17;;;14.10;99.90;;;;;;5050576;28;20409;-75
2022/10/29 01:53:19;;;;;;;13.20;3.63;;;14.00;99.90;;;;;;5047503;28;20468;-75
2022/10/29 01:55:44;;;;;;;11.43;3.37;;;14.00;99.90;;;;;;5043090;28;20532;-74
2022/10/29 01:58:11;;;;;;;13.20;3.93;;;14.00;99.90;;;;;;5054743;28;20387;-75
2022/10/29 02:00:49;;;;;;;17.17;3.57;;;14.00;99.90;;;;;;5053615;28;20627;-73
2022/10/29 02:03:39;;;;;;;10.73;3.50;;;14.00;99.90;;;;;;5053014;28;20432;-74
2022/10/29 02:06:19;;;;;;;12.63;3.43;;;13.90;99.90;;;;;;5034616;28;20469;-75
2022/10/29 02:09:13;;;;;;;20.80;3.97;;;13.90;99.90;;;;;;5041236;28;20475;-74
2022/10/29 02:11:47;;;;;;;14.27;3.27;;;13.90;99.90;;;;;;5053416;28;20869;-74
2022/10/29 02:14:26;;;;;;;10.20;4.17;;;13.80;99.90;;;;;;5051047;28;20455;-74
2022/10/29 02:16:53;;;;;;;11.13;4.27;;;13.80;99.90;;;;;;5053167;28;20933;-73
2022/10/29 02:19:19;;;;;;;9.10;3.57;;;13.70;99.90;;;;;;5054095;28;20417;-74
2022/10/29 02:21:45;;;;;;;4.30;3.10;;;13.60;99.90;;;;;;5053424;28;20437;-74
2022/10/29 02:24:11;;;;;;;17.73;3.70;;;13.70;99.90;;;;;;5053148;28;20623;-75
2022/10/29 02:26:36;;;;;;;7.50;3.73;;;13.70;99.90;;;;;;5054259;28;20277;-74
2022/10/29 02:29:02;;;;;;;12.40;4.27;;;13.60;99.90;;;;;;5052927;28;20174;-73
2022/10/29 02:31:28;;;;;;;13.70;3.60;;;13.60;99.90;;;;;;5053186;28;20181;-75
2022/10/29 02:33:53;;;;;;;15.00;3.97;;;13.60;99.90;;;;;;5052465;28;20701;-75
2022/10/29 02:36:19;;;;;;;12.37;3.43;;;13.60;99.90;;;;;;5053824;28;20441;-75
2022/10/29 02:38:45;;;;;;;15.60;3.03;;;13.50;99.90;;;;;;5053801;28;20171;-74
2022/10/29 02:41:10;;;;;;;15.70;3.10;;;13.50;99.90;;;;;;5053037;28;20186;-73
2022/10/29 02:43:36;;;;;;;7.60;3.27;;;13.50;99.90;;;;;;5052028;28;20185;-80
2022/10/29 02:46:22;;;;;;;9.23;4.30;;;13.40;99.90;;;;;;5069001;28;20668;-73
2022/10/29 02:48:48;;;;;;;11.60;3.90;;;13.50;99.90;;;;;;5053570;28;20182;-75
2022/10/29 02:51:15;;;;;;;12.43;3.60;;;13.40;99.90;;;;;;5052393;28;20429;-74
2022/10/29 02:53:45;;;;;;;18.07;3.40;;;13.40;99.90;;;;;;5052688;28;20409;-74
2022/10/29 02:56:11;;;;;;;10.33;2.97;;;13.40;99.90;;;;;;5052483;28;20423;-76
2022/10/29 02:58:36;;;;;;;13.53;3.40;;;13.40;99.90;;;;;;5053472;28;20387;-73
2022/10/29 03:01:02;;;;;;;5.40;2.97;;;13.30;99.90;;;;;;5052677;28;20639;-74
2022/10/29 03:03:28;;;;;;;7.93;4.53;;;13.30;99.90;;;;;;5052705;28;20191;-74
2022/10/29 03:05:54;;;;;;;8.70;3.50;;;13.20;99.90;;;;;;5052732;28;20510;-75
2022/10/29 03:08:20;;;;;;;14.40;3.10;;;13.30;99.90;;;;;;5053303;28;20418;-74
2022/10/29 03:10:45;;;;;;;11.47;3.37;;;13.30;99.90;;;;;;5051043;28;20175;-74
2022/10/29 03:13:11;;;;;;;9.33;2.97;;;13.30;99.90;;;;;;5052572;28;20183;-74
2022/10/29 03:15:37;;;;;;;13.60;2.90;;;13.20;99.90;;;;;;5052540;28;20186;-74
2022/10/29 03:18:04;;;;;;;12.37;3.40;;;13.20;99.90;;;;;;5053044;28;20184;-74
2022/10/29 03:20:30;;;;;;;14.10;2.90;;;13.20;99.90;;;;;;5052540;28;20429;-74
2022/10/29 03:22:55;;;;;;;11.20;3.40;;;13.20;99.90;;;;;;5053198;28;20416;-75
2022/10/29 03:25:21;;;;;;;8.53;4.23;;;13.20;99.90;;;;;;5045784;28;20465;-75
2022/10/29 03:27:47;;;;;;;10.50;3.63;;;13.10;99.90;;;;;;5068737;28;20185;-74
2022/10/29 03:30:14;;;;;;;13.90;3.50;;;13.10;99.90;;;;;;5051551;28;20159;-74
2022/10/29 03:32:44;;;;;;;17.20;4.10;;;13.10;99.90;;;;;;5049412;28;20411;-74
2022/10/29 03:35:11;;;;;;;6.57;3.10;;;13.00;99.90;;;;;;5052331;28;20401;-73
2022/10/29 03:37:37;;;;;;;15.40;3.43;;;12.90;99.90;;;;;;5051960;28;20487;-73
2022/10/29 03:40:04;;;;;;;15.63;2.93;;;12.90;99.90;;;;;;5051797;28;20410;-75
2022/10/29 03:42:30;;;;;;;6.97;3.37;;;12.80;99.90;;;;;;5051178;28;20437;-73
2022/10/29 03:44:57;;;;;;;9.30;2.77;;;12.80;99.90;;;;;;5052085;28;20413;-75
2022/10/29 03:47:23;;;;;;;13.10;3.10;;;12.70;99.90;;;;;;5052482;28;20191;-74
2022/10/29 03:49:48;;;;;;;9.97;2.87;;;12.70;99.90;;;;;;5051805;28;20770;-74
2022/10/29 03:52:14;;;;;;;11.17;2.90;;;12.70;99.90;;;;;;5051818;28;20182;-76
2022/10/29 03:54:40;;;;;;;14.77;3.20;;;12.60;99.90;;;;;;5052079;28;20667;-74
2022/10/29 03:57:05;;;;;;;13.27;4.40;;;12.60;99.90;;;;;;5051420;28;20197;-73
2022/10/29 03:59:31;;;;;;;9.80;3.80;;;12.60;99.90;;;;;;5052142;28;20263;-74
2022/10/29 04:01:56;;;;;;;15.60;4.63;;;12.60;99.90;;;;;;5051644;28;20202;-73
2022/10/29 04:04:22;;;;;;;5.67;2.83;;;12.60;99.90;;;;;;5051218;28;20187;-75
2022/10/29 04:06:48;;;;;;;10.87;3.63;;;12.60;99.90;;;;;;5051580;28;20257;-73
2022/10/29 04:09:13;;;;;;;16.60;4.50;;;12.50;99.90;;;;;;5052775;28;20170;-74
2022/10/29 04:11:39;;;;;;;10.70;3.70;;;12.40;99.90;;;;;;5050565;28;20187;-74
2022/10/29 04:14:04;;;;;;;14.87;3.57;;;12.40;99.90;;;;;;5048424;28;20178;-73
2022/10/29 04:16:30;;;;;;;6.60;3.50;;;12.40;99.90;;;;;;5050902;28;20668;-75
2022/10/29 04:18:56;;;;;;;13.10;3.30;;;12.40;99.90;;;;;;5051724;28;20175;-74
2022/10/29 04:21:21;;;;;;;6.33;2.50;;;12.40;99.90;;;;;;5051775;28;20206;-75
2022/10/29 04:23:48;;;;;;;10.77;2.70;;;12.30;99.90;;;;;;5050625;28;20187;-76
2022/10/29 04:26:14;;;;;;;7.50;3.00;;;12.30;99.90;;;;;;5052523;28;20198;-74
2022/10/29 04:28:39;;;;;;;10.57;2.90;;;12.30;99.90;;;;;;5051565;28;20384;-74
2022/10/29 04:31:06;;;;;;;4.53;2.27;;;12.30;99.90;;;;;;5051531;28;20171;-73
2022/10/29 04:33:32;;;;;;;11.73;3.13;;;12.30;99.90;;;;;;5050555;28;20651;-73
2022/10/29 04:35:58;;;;;;;12.70;3.67;;;12.30;99.90;;;;;;5049175;28;20427;-73
2022/10/29 04:38:24;;;;;;;11.70;4.00;;;12.30;99.90;;;;;;5052579;28;20380;-75
2022/10/29 04:40:49;;;;;;;17.30;4.03;;;12.30;99.90;;;;;;5053115;28;20182;-75
2022/10/29 04:43:16;;;;;;;15.03;2.97;;;12.30;99.90;;;;;;5056042;28;20163;-74
2022/10/29 04:45:41;;;;;;;11.13;3.10;;;12.30;99.90;;;;;;5054153;28;20210;-75
2022/10/29 04:48:07;;;;;;;6.73;3.40;;;12.30;99.90;;;;;;5056143;28;20772;-73
2022/10/29 04:50:36;;;;;;;12.37;4.67;;;12.40;99.90;;;;;;5055686;28;20220;-76
2022/10/29 04:53:04;;;;;;;5.00;2.50;;;12.40;99.90;;;;;;5055927;28;20352;-74
2022/10/29 04:55:30;;;;;;;9.97;3.90;;;12.40;99.90;;;;;;5053950;28;20419;-74
2022/10/29 04:57:56;;;;;;;6.77;2.60;;;12.40;99.90;;;;;;5054984;28;20935;-73
2022/10/29 05:00:23;;;;;;;8.13;2.93;;;12.30;99.90;;;;;;5055463;28;20893;-74
2022/10/29 05:02:50;;;;;;;5.90;2.90;;;12.30;99.90;;;;;;5054319;28;20757;-75
2022/10/29 05:05:18;;;;;;;6.33;2.80;;;12.20;99.90;;;;;;5053716;28;20428;-74
2022/10/29 05:07:43;;;;;;;7.23;3.27;;;12.20;99.90;;;;;;5055687;28;20747;-74
2022/10/29 05:10:09;;;;;;;8.20;3.00;;;12.10;99.90;;;;;;5054535;28;20418;-73
2022/10/29 05:12:35;;;;;;;9.07;2.60;;;12.00;99.90;;;;;;5054853;28;20224;-75
2022/10/29 05:15:01;;;;;;;13.00;4.53;;;12.00;99.90;;;;;;5053267;28;20413;-75
2022/10/29 05:17:26;;;;;;;6.77;3.23;;;12.00;99.90;;;;;;5055714;28;20253;-74
2022/10/29 05:19:52;;;;;;;13.63;3.47;;;12.00;99.90;;;;;;5054896;28;20171;-74
2022/10/29 05:22:18;;;;;;;16.17;4.10;;;12.00;99.90;;;;;;5054199;28;20181;-73
2022/10/29 05:24:43;;;;;;;11.23;3.30;;;12.00;99.90;;;;;;5053572;28;20167;-73
2022/10/29 05:27:09;;;;;;;7.60;3.63;;;12.00;99.90;;;;;;5055145;28;20214;-74
2022/10/29 05:29:35;;;;;;;8.93;3.80;;;12.00;99.90;;;;;;5054122;28;20642;-75
2022/10/29 05:32:00;;;;;;;10.53;3.80;;;12.00;99.90;;;;;;5054733;28;20185;-74
2022/10/29 05:34:26;;;;;;;5.27;3.23;;;12.00;99.90;;;;;;5053323;28;20590;-75
2022/10/29 05:36:52;;;;;;;14.33;4.57;;;11.90;99.90;;;;;;5054719;28;20206;-73
2022/10/29 05:39:17;;;;;;;10.17;4.10;;;11.90;99.90;;;;;;5053581;28;20265;-74
2022/10/29 05:41:44;;;;;;;8.57;3.70;;;11.90;99.90;;;;;;5054376;28;20182;-74
2022/10/29 05:44:10;;;;;;;10.67;4.57;;;11.90;99.90;;;;;;5051227;28;20543;-74
2022/10/29 05:46:36;;;;;;;14.17;4.50;;;11.90;99.90;;;;;;5053921;28;20450;-74
2022/10/29 05:49:02;;;;;;;5.53;3.70;;;11.90;99.90;;;;;;5054847;28;20224;-75
2022/10/29 05:51:27;;;;;;;8.60;3.53;;;11.90;1.00;;;;;;5069794;28;20593;-75
2022/10/29 05:53:53;;;;;;;4.23;3.43;;;12.00;1.00;;;;;;5052677;28;20474;-74
2022/10/29 05:56:19;;;;;;;8.93;3.93;;;11.90;1.00;;;;;;5054458;28;20237;-73
2022/10/29 05:58:48;;;;;;;13.07;4.37;;;11.90;1.00;;;;;;5054272;28;20183;-73
2022/10/29 06:01:14;;;;;;;17.07;4.87;;;11.90;1.00;;;;;;5054666;28;20171;-74
2022/10/29 06:03:40;;;;;;;9.93;3.43;;;11.90;1.00;;;;;;5052143;28;20914;-75
2022/10/29 06:06:06;;;;;;;11.83;4.87;;;11.90;1.00;;;;;;5053364;28;20233;-76
2022/10/29 06:08:31;;;;;;;14.23;5.83;;;11.80;1.00;;;;;;5054027;28;20170;-76
2022/10/29 06:11:00;;;;;;;6.83;4.50;;;11.70;1.00;;;;;;5054626;28;20459;-76
2022/10/29 06:13:26;;;;;;;10.20;4.07;;;11.70;1.00;;;;;;5054207;28;20182;-78
2022/10/29 06:15:57;;;;;;;7.43;4.23;;;11.70;1.00;;;;;;5051730;28;20830;-73
2022/10/29 06:18:23;;;;;;;10.90;3.90;;;11.70;1.00;;;;;;5054460;28;20173;-73
2022/10/29 06:20:48;;;;;;;4.73;4.13;;;11.60;1.00;;;;;;5054104;28;20500;-73
2022/10/29 06:23:14;;;;;;;7.03;4.57;;;11.50;1.00;;;;;;5054248;28;20175;-74
2022/10/29 06:25:40;;;;;;;3.90;3.60;;;11.50;1.00;;;;;;5051945;28;20218;-75
2022/10/29 06:28:08;;;;;;;4.97;4.57;;;11.50;1.00;;;;;;5054133;28;20163;-75
2022/10/29 06:30:35;;;;;;;3.73;3.43;;;11.50;1.00;;;;;;5054215;28;20159;-75
2022/10/29 06:33:02;;;;;;;6.10;4.20;;;11.50;1.00;;;;;;5053215;28;20408;-72
2022/10/29 06:35:28;;;;;;;7.37;4.97;;;11.50;1.00;;;;;;5051764;28;20419;-75
2022/10/29 06:37:54;;;;;;;8.50;6.93;;;11.50;1.00;;;;;;5052435;28;20392;-75
2022/10/29 06:40:20;;;;;;;6.17;4.73;;;11.50;1.00;;;;;;5051837;28;20411;-74
2022/10/29 06:42:45;;;;;;;4.57;4.23;;;11.50;1.00;;;;;;5053779;28;20229;-72
2022/10/29 06:45:12;;;;;;;7.00;3.70;;;11.50;1.00;;;;;;5052848;28;20528;-73
2022/10/29 06:47:42;;;;;;;4.53;3.37;;;11.50;1.00;;;;;;5053477;28;20512;-76
2022/10/29 06:50:09;;;;;;;6.20;4.60;;;11.50;1.00;;;;;;5053753;28;20381;-75
2022/10/29 06:52:35;;;;;;;4.20;3.40;;;11.50;1.00;;;;;;5052843;28;20404;-73
2022/10/29 06:55:01;;;;;;;4.40;3.77;;;11.50;1.00;;;;;;5052043;28;20483;-76
2022/10/29 06:57:28;;;;;;;7.80;4.60;;;11.40;1.00;;;;;;5053700;28;20969;-75
2022/10/29 06:59:54;;;;;;;7.90;4.53;;;11.40;1.00;;;;;;5052188;28;20408;-74
2022/10/29 07:02:21;;;;;;;7.30;4.30;;;11.40;1.00;;;;;;5052411;28;20383;-73
2022/10/29 07:04:46;;;;;;;8.73;4.40;;;11.50;1.00;;;;;;5053825;28;20430;-75
2022/10/29 07:07:12;;;;;;;11.00;3.73;;;11.60;1.00;;;;;;5073339;28;20459;-75
2022/10/29 07:09:38;;;;;;;4.90;3.80;;;11.60;1.00;;;;;;5054295;28;20259;-74
2022/10/29 07:12:08;;;;;;;6.77;4.57;;;11.60;1.00;;;;;;5052347;28;20839;-74
2022/10/29 07:14:34;;;;;;;6.77;4.00;;;11.60;1.00;;;;;;5051311;28;20481;-75
2022/10/29 07:16:59;;;;;;;4.97;4.20;;;11.60;1.00;;;;;;5052426;28;20424;-73
2022/10/29 07:19:25;;;;;;;5.27;4.77;;;11.70;1.00;;;;;;5052568;28;20183;-75
2022/10/29 07:21:51;;;;;;;10.63;4.73;;;11.70;1.00;;;;;;5052838;28;20547;-75
2022/10/29 07:24:16;;;;;;;9.10;3.90;;;11.70;1.00;;;;;;5052233;28;20604;-75
2022/10/29 07:26:42;;;;;;;3.90;3.50;;;11.70;1.00;;;;;;5052025;28;20206;-73
2022/10/29 07:29:09;;;;;;;4.60;3.70;;;11.70;4.40;;;;;;5051351;28;20178;-74
2022/10/29 07:31:34;;;;;;;4.67;4.00;;;11.70;7.00;;;;;;5052763;28;20395;-74
2022/10/29 07:34:00;;;;;;;5.80;3.50;;;11.70;12.10;;;;;;5052202;28;20376;-76
2022/10/29 07:36:26;;;;;;;3.97;3.67;;;11.80;22.20;;;;;;5051344;28;20536;-74
2022/10/29 07:38:51;;;;;;;4.50;4.10;;;11.90;28.00;;;;;;5052320;28;20236;-74
2022/10/29 07:41:17;;;;;;;5.40;3.90;;;11.90;33.90;;;;;;5052440;28;20220;-73
2022/10/29 07:43:43;;;;;;;6.30;3.83;;;11.90;33.90;;;;;;5052127;28;20217;-74
2022/10/29 07:46:08;;;;;;;6.73;4.13;;;12.00;41.60;;;;;;5052746;28;20243;-74
2022/10/29 07:48:34;;;;;;;5.40;4.07;;;12.10;45.60;;;;;;5052122;28;20633;-74
2022/10/29 07:51:01;;;;;;;6.20;4.20;;;12.20;50.50;;;;;;5052879;28;20199;-74
2022/10/29 07:53:26;;;;;;;9.07;4.13;;;12.20;58.80;;;;;;5052119;28;20171;-75
2022/10/29 07:55:55;;;;;;;6.87;4.63;;;12.30;56.40;;;;;;5052285;28;20421;-75
2022/10/29 07:58:21;;;;;;;6.40;4.40;;;12.30;50.50;;;;;;5052147;28;20268;-73
2022/10/29 08:00:47;;;;;;;6.80;4.67;;;12.40;34.60;;;;;;5052087;28;20428;-74
2022/10/29 08:03:16;;;;;;;6.97;4.57;;;12.30;35.00;;;;;;5052888;28;20448;-72
2022/10/29 08:05:41;;;;;;;7.00;5.73;;;12.40;37.40;;;;;;5051887;28;20222;-73
2022/10/29 08:08:07;;;;;;;6.70;4.53;;;12.30;34.40;;;;;;5052434;28;20457;-74
2022/10/29 08:10:34;;;;;;;7.97;4.60;;;12.30;27.70;;;;;;5051331;28;20722;-73
2022/10/29 08:13:02;;;;;;;5.00;4.50;;;12.30;32.10;;;;;;5052447;28;20431;-73
2022/10/29 08:15:29;;;;;;;5.20;4.70;;;12.40;34.40;;;;;;5053641;28;20408;-75
2022/10/29 08:17:55;;;;;;;6.13;4.30;;;12.40;35.30;;;;;;5072248;28;20388;-74
2022/10/29 08:20:23;;;;;;;6.33;4.57;;;12.50;36.50;;;;;;5055807;28;20408;-75
2022/10/29 08:22:49;;;;;;;12.67;5.60;;;12.60;47.50;;;;;;5056706;28;20410;-73
2022/10/29 08:25:15;;;;;;;6.83;4.27;;;12.70;36.40;;;;;;5055334;28;20391;-76
2022/10/29 08:27:41;;;;;;;8.10;5.10;;;12.80;36.30;;;;;;5055381;28;20240;-73
2022/10/29 08:30:09;;;;;;;5.10;4.07;;;12.90;42.60;;;;;;5055674;28;20921;-74
2022/10/29 08:32:35;;;;;;;7.20;4.60;;;12.90;35.80;;;;;;5056199;28;20874;-74
2022/10/29 08:35:01;;;;;;;6.13;4.93;;;12.90;29.30;;;;;;5055207;28;20375;-74
2022/10/29 08:37:28;;;;;;;5.03;4.50;;;12.90;19.90;;;;;;5056370;28;20167;-74
2022/10/29 08:39:54;;;;;;;5.80;4.97;;;13.00;10.70;;;;;;5055526;28;20421;-74
2022/10/29 08:42:46;;;;;;;6.43;4.00;;;12.90;1.00;;;;;;5056109;28;20379;-76
2022/10/29 08:45:15;;;;;;;5.47;4.87;;;13.00;1.00;;;;;;5054977;28;20163;-74
2022/10/29 08:48:19;;;;;;;7.13;4.63;;;13.10;1.00;;;;;;5056113;28;20401;-73
2022/10/29 08:51:03;;;;;;;5.80;5.20;;;13.10;1.00;;;;;;5019516;28;20438;-75
2022/10/29 08:53:38;;;;;;;7.10;4.80;;;13.10;1.00;;;;;;5035826;28;20472;-74
2022/10/29 08:56:11;;;;;;;5.73;5.13;;;13.10;1.00;;;;;;5052387;28;20419;-74
2022/10/29 08:58:49;;;;;;;9.80;4.83;;;13.00;1.00;;;;;;5055682;28;20492;-74
2022/10/29 09:01:17;;;;;;;7.20;5.97;;;13.10;1.00;;;;;;5054791;28;20408;-74
2022/10/29 09:03:42;;;;;;;8.03;5.60;;;13.10;1.00;;;;;;5054465;28;20483;-73
2022/10/29 09:06:32;;;;;;;6.80;6.10;;;13.20;1.00;;;;;;5055710;28;20527;-74
2022/10/29 09:09:33;;;;;;;7.40;5.70;;;13.20;1.00;;;;;;5054882;28;20167;-75
2022/10/29 09:12:32;;;;;;;13.53;5.47;;;13.10;1.00;;;;;;5055781;28;20771;-74
2022/10/29 09:15:18;;;;;;;10.27;5.53;;;13.10;1.00;;;;;;5053597;28;20412;-75
2022/10/29 09:18:10;;;;;;;11.67;5.93;;;13.10;1.00;;;;;;5054651;28;20415;-72
2022/10/29 09:20:48;;;;;;;9.93;6.00;;;13.10;1.00;;;;;;5053665;28;20400;-75
2022/10/29 09:23:27;;;;;;;11.17;7.37;;;13.10;1.00;;;;;;5054298;28;20435;-74
2022/10/29 09:26:29;;;;;;;9.70;7.30;;;13.20;1.00;;;;;;5053830;28;20439;-73
2022/10/29 09:29:24;;;;;;;11.83;6.83;;;13.20;1.00;;;;;;5046902;28;20486;-77
2022/10/29 09:31:54;;;;;;;15.00;7.50;;;13.30;1.00;;;;;;5039979;28;20397;-76
2022/10/29 09:34:29;;;;;;;13.60;7.53;;;13.50;1.00;;;;;;5052521;28;20396;-75
2022/10/29 09:36:55;;;;;;;18.70;7.80;;;13.50;1.00;;;;;;5054116;28;20415;-75
2022/10/29 09:39:37;;;;;;;9.33;7.30;;;13.60;1.00;;;;;;5054272;28;20444;-74
2022/10/29 09:42:19;;;;;;;14.63;7.97;;;13.60;1.00;;;;;;5034760;28;20385;-74
2022/10/29 09:45:01;;;;;;;11.90;7.50;;;13.70;1.00;;;;;;5036484;28;20399;-74
2022/10/29 09:47:36;;;;;;;13.53;7.20;;;13.80;1.00;;;;;;5055000;28;20409;-74
2022/10/29 09:50:32;;;;;;;10.30;8.20;;;13.80;1.00;;;;;;5053038;28;20527;-76
2022/10/29 09:52:58;;;;;;;9.83;7.77;;;14.00;1.00;;;;;;5054759;28;20402;-75
2022/10/29 09:55:38;;;;;;;17.90;9.33;;;14.00;1.00;;;;;;5053540;28;20422;-75
2022/10/29 09:58:05;;;;;;;13.40;7.00;;;14.00;1.00;;;;;;5054359;28;20398;-75
2022/10/29 10:00:31;;;;;;;12.67;7.47;;;13.90;1.00;;;;;;5053743;28;20992;-74
2022/10/29 10:03:03;;;;;;;10.47;7.47;;;13.90;1.00;;;;;;5053803;28;20433;-75
2022/10/29 10:05:32;;;;;;;15.00;8.43;;;14.00;1.00;;;;;;5053305;28;20483;-74
2022/10/29 10:08:13;;;;;;;8.90;7.20;;;13.90;1.00;;;;;;5054630;28;20380;-75
2022/10/29 10:10:56;;;;;;;12.60;7.83;;;14.00;1.00;;;;;;5046295;28;20429;-74
2022/10/29 10:13:49;;;;;;;12.00;7.00;;;14.00;1.00;;;;;;5053961;28;20933;-75
2022/10/29 10:16:23;;;;;;;10.47;6.57;;;14.10;1.00;;;;;;5053744;28;20938;-73
2022/10/29 10:18:49;;;;;;;9.10;6.33;;;14.10;1.00;;;;;;5053105;28;20915;-73
2022/10/29 10:21:32;;;;;;;8.13;6.53;;;13.90;1.00;;;;;;5052983;28;20407;-75
2022/10/29 10:23:58;;;;;;;11.00;6.97;;;13.90;1.00;;;;;;5052431;28;20179;-74
2022/10/29 10:26:40;;;;;;;9.47;6.20;;;13.90;1.00;;;;;;5052252;28;20789;-73
2022/10/29 10:29:13;;;;;;;12.90;7.10;;;14.10;1.00;;;;;;5054304;28;20394;-76
2022/10/29 10:31:40;;;;;;;11.80;7.27;;;14.20;1.00;;;;;;5034204;28;20402;-76
2022/10/29 10:34:19;;;;;;;14.93;7.47;;;14.30;1.00;;;;;;5043590;28;20445;-73
2022/10/29 10:36:49;;;;;;;8.47;6.87;;;14.40;1.00;;;;;;5053138;28;20480;-75
2022/10/29 10:39:26;;;;;;;7.17;6.43;;;14.50;1.00;;;;;;5053328;28;20417;-75
2022/10/29 10:41:53;;;;;;;8.77;6.83;;;14.60;1.00;;;;;;5053605;28;20405;-77
2022/10/29 10:44:22;;;;;;;10.37;7.33;;;14.70;1.00;;;;;;5053001;28;20787;-77
2022/10/29 10:46:50;;;;;;;10.17;6.30;;;14.60;1.00;;;;;;5052741;28;20821;-78
2022/10/29 10:49:21;;;;;;;9.53;6.70;;;14.70;1.00;;;;;;5052629;28;20386;-74
2022/10/29 10:51:53;;;;;;;10.53;7.43;;;14.80;1.00;;;;;;5053671;28;20448;-75
2022/10/29 10:54:28;;;;;;;10.10;6.73;;;14.80;1.00;;;;;;5050320;28;20456;-72
2022/10/29 10:57:03;;;;;;;12.33;6.90;;;14.80;1.00;;;;;;5051427;28;20452;-75
2022/10/29 11:00:06;;;;;;;8.20;6.80;;;14.80;1.00;;;;;;5053231;28;20421;-73
2022/10/29 11:02:44;;;;;;;11.20;7.10;;;14.70;1.00;;;;;;5033731;28;20412;-75
2022/10/29 11:05:26;;;;;;;8.63;7.37;;;14.80;1.00;;;;;;5044248;28;20995;-74
2022/10/29 11:08:35;;;;;;;11.27;7.50;;;14.90;1.00;;;;;;5053290;28;20449;-73
2022/10/29 11:11:07;;;;;;;9.63;6.40;;;15.10;1.00;;;;;;5050033;28;20413;-74
2022/10/29 11:13:33;;;;;;;7.53;6.73;;;15.10;1.00;;;;;;5051354;28;20444;-73
2022/10/29 11:16:32;;;;;;;11.37;6.87;;;15.10;1.00;;;;;;5049780;28;20506;-73
2022/10/29 11:19:21;;;;;;;12.13;7.03;;;15.20;1.00;;;;;;5053137;28;20413;-75
2022/10/29 11:22:17;;;;;;;10.57;6.47;;;15.20;1.00;;;;;;5050360;28;20418;-73
2022/10/29 11:24:58;;;;;;;8.43;6.10;;;15.30;1.00;;;;;;5051567;28;20460;-73
2022/10/29 11:27:41;;;;;;;6.53;5.90;;;15.40;1.00;;;;;;5052051;28;20469;-73
2022/10/29 11:30:30;;;;;;;8.43;6.13;;;15.50;1.00;;;;;;5051978;28;20444;-74
2022/10/29 11:33:04;;;;;;;8.63;7.07;;;15.60;1.00;;;;;;5052054;28;20443;-73
2022/10/29 11:35:49;;;;;;;7.07;6.10;;;15.60;1.00;;;;;;5050001;28;20952;-76
2022/10/29 11:38:38;;;;;;;7.10;6.10;;;15.60;1.00;;;;;;5052936;28;20417;-75
2022/10/29 11:41:15;;;;;;;12.40;6.97;;;15.60;1.00;;;;;;5053196;28;20417;-75
2022/10/29 11:43:41;;;;;;;13.13;6.90;;;15.60;1.00;;;;;;5039168;28;20472;-75
2022/10/29 11:46:16;;;;;;;8.40;6.80;;;15.70;1.00;;;;;;5051582;28;20496;-76
2022/10/29 11:48:57;;;;;;;10.80;7.33;;;15.90;1.00;;;;;;5051775;28;20170;-74
2022/10/29 11:51:30;;;;;;;7.63;6.80;;;16.10;1.00;;;;;;5056200;28;20749;-75
2022/10/29 11:54:11;;;;;;;6.97;6.17;;;16.20;99.90;;;;;;5036302;28;20402;-75
2022/10/29 11:57:02;;;;;;;11.47;8.20;;;16.30;99.90;;;;;;5042816;28;20548;-75
2022/10/29 11:59:41;;;;;;;7.17;5.70;;;16.40;99.90;;;;;;5057201;28;20409;-74
2022/10/29 12:02:36;;;;;;;10.27;6.90;;;16.40;99.90;;;;;;5056614;28;20417;-73
2022/10/29 12:05:24;;;;;;;7.63;5.77;;;16.50;99.90;;;;;;5055434;28;20789;-73
2022/10/29 12:08:15;;;;;;;8.70;7.00;;;16.70;99.90;;;;;;5038487;28;20983;-73
2022/10/29 12:11:06;;;;;;;8.17;6.00;;;16.90;99.90;;;;;;5055693;28;20894;-74
2022/10/29 12:13:59;;;;;;;8.90;6.07;;;16.90;99.90;;;;;;5055117;28;20453;-75
2022/10/29 12:16:29;;;;;;;10.03;6.13;;;16.90;99.90;;;;;;5055421;28;21013;-76
2022/10/29 12:19:16;;;;;;;8.97;6.00;;;16.80;99.90;;;;;;5056949;28;20440;-73
2022/10/29 12:21:48;;;;;;;10.67;6.53;;;16.70;99.90;;;;;;5056342;28;20900;-72
2022/10/29 12:24:41;;;;;;;7.30;5.63;;;16.80;99.90;;;;;;5055513;28;20401;-78
2022/10/29 12:27:17;;;;;;;9.63;6.67;;;16.90;99.90;;;;;;5044193;28;20546;-75
2022/10/29 12:29:59;;;;;;;7.73;5.33;;;17.00;99.90;;;;;;5056370;28;20401;-74
2022/10/29 12:32:30;;;;;;;7.03;6.20;;;17.10;99.90;;;;;;5036471;28;20386;-73
2022/10/29 12:35:28;;;;;;;11.23;5.57;;;16.90;99.90;;;;;;5037106;28;20806;-73
2022/10/29 12:38:12;;;;;;;6.93;5.57;;;16.80;99.90;;;;;;5055453;28;20417;-74
2022/10/29 12:40:41;;;;;;;7.57;6.17;;;16.70;99.90;;;;;;5055956;28;20417;-75
2022/10/29 12:43:24;;;;;;;8.57;6.67;;;16.70;99.90;;;;;;5055392;28;20554;-74
2022/10/29 12:46:07;;;;;;;7.57;5.80;;;16.70;99.90;;;;;;5070413;28;20587;-74
2022/10/29 12:48:56;;;;;;;8.47;7.50;;;16.80;99.90;;;;;;5056020;28;20409;-76
2022/10/29 12:51:57;;;;;;;9.63;5.53;;;16.90;99.90;;;;;;5055881;28;20750;-75
2022/10/29 12:54:38;;;;;;;12.10;6.93;;;17.00;99.90;;;;;;5055020;28;20393;-75
2022/10/29 12:57:11;;;;;;;9.13;7.00;;;17.00;99.90;;;;;;5053973;28;20503;-74
2022/10/29 12:59:37;;;;;;;10.40;6.33;;;16.90;99.90;;;;;;5054933;28;20929;-76
2022/10/29 13:02:25;;;;;;;12.20;6.60;;;16.80;99.90;;;;;;5053423;28;20437;-75
2022/10/29 13:05:05;;;;;;;8.20;5.83;;;16.80;99.90;;;;;;5053244;28;20187;-74
2022/10/29 13:07:32;;;;;;;11.37;6.77;;;16.60;99.90;;;;;;5054692;28;20456;-73
2022/10/29 13:10:29;;;;;;;9.40;6.90;;;16.60;99.90;;;;;;5056643;28;20570;-72
2022/10/29 13:12:58;;;;;;;10.10;5.97;;;16.50;99.90;;;;;;5055737;28;20455;-73